Time;durP1;ratioP1;P1;durP2;ratioP2;P2;SDS_P1;SDS_P2;PMS_P1;PMS_P2;Temp;Humidity;BMP_temperature;BMP_pressure;BME280_temperature;BME280_humidity;BME280_pressure;Samples;Min_cycle;Max_cycle;Signal;HPM_P1;HPM_P2
2023/12/28 00:01:48;;;;;;;283.60;266.65;;;13.10;99.90;;;;;;5036486;28;20495;-72
2023/12/28 00:04:14;;;;;;;293.30;275.13;;;13.10;99.90;;;;;;5031372;28;20037;-72
2023/12/28 00:06:40;;;;;;;269.42;252.95;;;13.10;99.90;;;;;;5032480;28;20472;-71
2023/12/28 00:09:08;;;;;;;265.25;249.02;;;13.10;99.90;;;;;;5050014;28;20040;-72
2023/12/28 00:11:34;;;;;;;280.88;263.83;;;13.10;99.90;;;;;;5040566;28;20046;-72
2023/12/28 00:14:00;;;;;;;252.85;237.60;;;13.10;99.90;;;;;;5038642;28;20032;-72
2023/12/28 00:16:27;;;;;;;270.38;253.85;;;13.10;99.90;;;;;;5036113;28;20042;-72
2023/12/28 00:18:53;;;;;;;260.00;244.15;;;13.00;99.90;;;;;;5032144;28;20416;-72
2023/12/28 00:21:19;;;;;;;272.25;255.90;;;13.00;99.90;;;;;;5034516;28;20037;-72
2023/12/28 00:23:45;;;;;;;270.17;254.02;;;13.00;99.90;;;;;;5035989;28;20048;-72
2023/12/28 00:26:12;;;;;;;288.88;271.17;;;13.00;99.90;;;;;;5039344;28;20396;-72
2023/12/28 00:28:38;;;;;;;296.95;279.35;;;13.00;99.90;;;;;;5033155;28;20038;-72
2023/12/28 00:31:04;;;;;;;278.67;261.92;;;13.00;99.90;;;;;;5035948;28;20049;-72
2023/12/28 00:33:30;;;;;;;292.10;273.92;;;13.00;99.90;;;;;;5031973;28;20136;-72
2023/12/28 00:35:56;;;;;;;319.23;299.92;;;13.00;99.90;;;;;;5046090;28;20037;-72
2023/12/28 00:38:22;;;;;;;296.77;278.88;;;13.00;99.90;;;;;;5034387;28;20045;-72
2023/12/28 00:40:48;;;;;;;274.85;258.52;;;13.00;99.90;;;;;;5033855;28;20033;-72
2023/12/28 00:43:14;;;;;;;281.30;264.25;;;13.00;99.90;;;;;;5032732;28;20041;-72
2023/12/28 00:45:41;;;;;;;277.45;260.42;;;13.00;99.90;;;;;;5044483;28;20041;-72
2023/12/28 00:48:08;;;;;;;252.48;237.55;;;13.00;99.90;;;;;;5035999;28;20044;-73
2023/12/28 00:50:34;;;;;;;260.80;244.65;;;13.00;99.90;;;;;;5050203;28;20045;-73
2023/12/28 00:53:00;;;;;;;248.38;233.27;;;13.00;99.90;;;;;;5037691;28;20048;-72
2023/12/28 00:55:27;;;;;;;229.00;214.80;;;12.90;99.90;;;;;;5048132;28;20703;-73
2023/12/28 00:57:53;;;;;;;229.30;215.18;;;13.00;99.90;;;;;;5050244;28;20380;-75
2023/12/28 01:00:19;;;;;;;240.40;225.77;;;13.00;99.90;;;;;;5037664;28;20042;-75
2023/12/28 01:02:49;;;;;;;240.10;225.68;;;13.00;99.90;;;;;;5049658;28;20067;-75
2023/12/28 01:05:15;;;;;;;233.13;218.82;;;13.00;99.90;;;;;;5051357;28;20024;-75
2023/12/28 01:07:41;;;;;;;233.98;219.82;;;12.90;99.90;;;;;;5032616;28;20384;-75
2023/12/28 01:10:07;;;;;;;258.48;242.20;;;12.90;99.90;;;;;;5035161;28;20056;-76
2023/12/28 01:12:33;;;;;;;234.43;220.10;;;12.90;99.90;;;;;;5038588;28;20040;-75
2023/12/28 01:14:59;;;;;;;246.43;231.30;;;12.90;99.90;;;;;;5043836;28;20021;-75
2023/12/28 01:17:25;;;;;;;251.90;236.55;;;12.90;99.90;;;;;;5032860;28;20071;-75
2023/12/28 01:19:51;;;;;;;251.88;236.52;;;12.90;99.90;;;;;;5040690;28;20029;-75
2023/12/28 01:22:17;;;;;;;288.80;271.00;;;12.90;99.90;;;;;;5034526;28;20040;-75
2023/12/28 01:24:46;;;;;;;307.98;287.75;;;12.90;99.90;;;;;;5033376;28;20029;-75
2023/12/28 01:27:13;;;;;;;301.95;284.25;;;12.90;99.90;;;;;;5033219;28;20379;-75
2023/12/28 01:29:39;;;;;;;365.00;340.85;;;12.90;99.90;;;;;;5038145;28;20025;-75
2023/12/28 01:32:05;;;;;;;251.40;235.45;;;12.90;99.90;;;;;;5046312;28;20048;-75
2023/12/28 01:34:31;;;;;;;298.92;280.80;;;13.00;99.90;;;;;;5041257;28;20021;-74
2023/12/28 01:36:57;;;;;;;313.98;294.30;;;12.90;99.90;;;;;;5036369;28;20029;-75
2023/12/28 01:39:23;;;;;;;295.60;277.17;;;12.90;99.90;;;;;;5041460;28;20028;-75
2023/12/28 01:41:49;;;;;;;220.35;206.93;;;13.00;99.90;;;;;;5049206;28;20025;-75
2023/12/28 01:44:15;;;;;;;270.73;254.57;;;13.00;99.90;;;;;;5036954;28;20060;-75
2023/12/28 01:46:42;;;;;;;300.20;281.83;;;13.00;99.90;;;;;;5032517;28;20070;-75
2023/12/28 01:49:08;;;;;;;345.25;323.23;;;13.00;99.90;;;;;;5046490;28;20494;-75
2023/12/28 01:51:34;;;;;;;376.83;352.20;;;13.00;99.90;;;;;;5032301;28;20048;-75
2023/12/28 01:54:00;;;;;;;373.60;348.90;;;13.00;99.90;;;;;;5037181;28;20482;-75
2023/12/28 01:56:26;;;;;;;367.30;343.13;;;12.90;99.90;;;;;;5023493;28;20052;-75
2023/12/28 01:58:52;;;;;;;359.88;336.00;;;12.90;99.90;;;;;;5031669;28;20034;-75
2023/12/28 02:01:19;;;;;;;357.45;333.85;;;12.90;99.90;;;;;;5041317;28;20041;-75
2023/12/28 02:03:45;;;;;;;331.92;310.45;;;12.90;99.90;;;;;;5017023;28;20361;-75
2023/12/28 02:06:11;;;;;;;316.20;296.27;;;12.80;99.90;;;;;;5000542;28;20060;-72
2023/12/28 02:08:37;;;;;;;299.38;280.27;;;12.80;99.90;;;;;;5017274;28;20033;-72
2023/12/28 02:11:04;;;;;;;296.40;277.92;;;12.80;99.90;;;;;;5039375;28;20052;-72
2023/12/28 02:13:30;;;;;;;287.58;269.80;;;12.80;99.90;;;;;;5049449;28;20052;-72
2023/12/28 02:16:01;;;;;;;277.10;259.60;;;12.80;99.90;;;;;;5043890;28;20032;-72
2023/12/28 02:18:34;;;;;;;246.80;231.02;;;12.80;99.90;;;;;;5044373;28;20036;-72
2023/12/28 02:21:00;;;;;;;269.40;252.63;;;12.80;99.90;;;;;;5035558;28;20040;-72
2023/12/28 02:23:26;;;;;;;214.18;200.57;;;12.80;99.90;;;;;;5033316;28;20037;-72
2023/12/28 02:25:52;;;;;;;188.70;176.88;;;12.80;99.90;;;;;;5037011;28;20033;-72
2023/12/28 02:28:18;;;;;;;191.07;178.95;;;12.80;99.90;;;;;;5047240;28;20514;-72
2023/12/28 02:30:44;;;;;;;220.98;206.65;;;12.70;99.90;;;;;;5044237;28;20037;-72
2023/12/28 02:33:31;;;;;;;231.57;216.88;;;12.70;99.90;;;;;;5033995;28;20522;-73
2023/12/28 02:36:09;;;;;;;228.88;213.70;;;12.70;99.90;;;;;;5034613;28;20035;-72
2023/12/28 02:38:36;;;;;;;294.33;274.70;;;12.70;99.90;;;;;;5026781;28;20026;-72
2023/12/28 02:41:03;;;;;;;302.92;283.77;;;12.80;99.90;;;;;;5030843;28;20029;-72
2023/12/28 02:43:29;;;;;;;329.83;308.50;;;12.70;99.90;;;;;;5031027;28;20026;-72
2023/12/28 02:45:55;;;;;;;351.33;328.08;;;12.70;99.90;;;;;;5031434;28;20049;-72
2023/12/28 02:48:21;;;;;;;328.77;307.50;;;12.70;99.90;;;;;;5050461;28;20036;-72
2023/12/28 02:50:47;;;;;;;340.48;318.00;;;12.70;99.90;;;;;;5046608;28;20442;-72
2023/12/28 02:53:13;;;;;;;387.42;361.77;;;12.70;99.90;;;;;;5047669;28;20033;-72
2023/12/28 02:55:40;;;;;;;390.15;364.52;;;12.70;99.90;;;;;;5044919;28;20387;-72
2023/12/28 02:58:06;;;;;;;399.23;372.75;;;12.70;99.90;;;;;;5032091;28;20033;-72
2023/12/28 03:00:32;;;;;;;386.73;361.20;;;12.70;99.90;;;;;;5041599;28;20037;-73
2023/12/28 03:02:58;;;;;;;387.27;360.98;;;12.60;99.90;;;;;;5033045;28;20037;-72
2023/12/28 03:05:24;;;;;;;393.85;367.90;;;12.60;99.90;;;;;;5044851;28;20025;-72
2023/12/28 03:07:50;;;;;;;408.80;381.42;;;12.60;99.90;;;;;;5039112;28;20044;-73
2023/12/28 03:10:16;;;;;;;399.20;372.45;;;12.60;99.90;;;;;;5049114;28;20037;-73
2023/12/28 03:12:42;;;;;;;373.77;348.73;;;12.70;99.90;;;;;;5032157;28;20048;-73
2023/12/28 03:15:08;;;;;;;369.30;345.20;;;12.60;99.90;;;;;;5032671;28;20044;-73
2023/12/28 03:17:36;;;;;;;369.88;345.13;;;12.60;99.90;;;;;;5041913;28;20467;-73
2023/12/28 03:20:02;;;;;;;345.15;322.63;;;12.60;99.90;;;;;;5038078;28;20037;-73
2023/12/28 03:22:28;;;;;;;347.38;324.70;;;12.60;99.90;;;;;;5031084;28;20037;-73
2023/12/28 03:24:55;;;;;;;341.67;319.58;;;12.60;99.90;;;;;;5037904;28;20044;-70
2023/12/28 03:27:21;;;;;;;327.25;306.15;;;12.60;99.90;;;;;;5031496;28;20067;-72
2023/12/28 03:29:47;;;;;;;349.63;326.90;;;12.50;99.90;;;;;;5049999;28;20029;-72
2023/12/28 03:32:14;;;;;;;343.50;320.85;;;12.50;99.90;;;;;;5042820;28;20399;-73
2023/12/28 03:34:40;;;;;;;362.80;339.10;;;12.50;99.90;;;;;;5049532;28;20033;-72
2023/12/28 03:37:06;;;;;;;349.05;326.45;;;12.50;99.90;;;;;;5041064;28;20029;-73
2023/12/28 03:39:33;;;;;;;374.13;349.77;;;12.50;99.90;;;;;;5051275;28;20045;-73
2023/12/28 03:41:59;;;;;;;373.73;349.13;;;12.50;99.90;;;;;;5037886;28;20369;-72
2023/12/28 03:44:25;;;;;;;354.15;330.77;;;12.50;99.90;;;;;;5047324;28;20045;-72
2023/12/28 03:46:51;;;;;;;326.10;304.35;;;12.40;99.90;;;;;;5036203;28;20381;-72
2023/12/28 03:49:20;;;;;;;328.20;306.02;;;12.40;99.90;;;;;;5035413;28;20025;-73
2023/12/28 03:51:49;;;;;;;314.33;294.25;;;12.40;99.90;;;;;;5035110;28;20372;-72
2023/12/28 03:54:18;;;;;;;314.38;294.48;;;12.40;99.90;;;;;;5050709;28;20021;-72
2023/12/28 03:56:45;;;;;;;326.10;304.15;;;12.50;99.90;;;;;;5049995;28;20100;-72
2023/12/28 03:59:11;;;;;;;348.00;325.30;;;12.50;99.90;;;;;;5037538;28;20042;-73
2023/12/28 04:01:37;;;;;;;341.27;318.73;;;12.50;99.90;;;;;;5049713;28;20044;-72
2023/12/28 04:04:03;;;;;;;320.42;299.60;;;12.50;99.90;;;;;;5054933;28;20037;-72
2023/12/28 04:06:29;;;;;;;316.85;296.63;;;12.40;99.90;;;;;;5042021;28;20037;-72
2023/12/28 04:08:55;;;;;;;318.35;297.50;;;12.40;99.90;;;;;;5036145;28;20041;-72
2023/12/28 04:11:22;;;;;;;331.65;310.35;;;12.40;99.90;;;;;;5035289;28;20072;-71
2023/12/28 04:13:48;;;;;;;328.20;306.38;;;12.40;99.90;;;;;;5052819;28;20029;-72
2023/12/28 04:16:14;;;;;;;329.25;308.08;;;12.40;99.90;;;;;;5040649;28;20076;-75
2023/12/28 04:18:43;;;;;;;336.13;314.77;;;12.40;99.90;;;;;;5033664;28;20036;-75
2023/12/28 04:21:13;;;;;;;324.58;303.40;;;12.40;99.90;;;;;;5041477;28;20052;-75
2023/12/28 04:23:39;;;;;;;319.67;299.33;;;12.40;99.90;;;;;;5044767;28;20534;-75
2023/12/28 04:26:06;;;;;;;353.92;330.42;;;12.40;99.90;;;;;;5026908;28;20038;-75
2023/12/28 04:28:34;;;;;;;251.90;236.68;;;12.40;99.90;;;;;;5033589;28;20041;-75
2023/12/28 04:31:04;;;;;;;284.50;267.23;;;12.40;99.90;;;;;;5033846;28;20030;-75
2023/12/28 04:33:31;;;;;;;264.33;247.30;;;12.40;99.90;;;;;;5036760;28;20056;-75
2023/12/28 04:35:57;;;;;;;260.63;244.60;;;12.40;99.90;;;;;;5041118;28;20467;-75
2023/12/28 04:38:23;;;;;;;284.60;266.75;;;12.40;99.90;;;;;;5038457;28;20515;-75
2023/12/28 04:40:49;;;;;;;274.63;257.15;;;12.40;99.90;;;;;;5028214;28;20040;-75
2023/12/28 04:43:15;;;;;;;290.42;271.80;;;12.30;99.90;;;;;;5036777;28;20030;-75
2023/12/28 04:45:41;;;;;;;333.08;309.40;;;12.30;99.90;;;;;;5043807;28;20040;-75
2023/12/28 04:48:07;;;;;;;363.23;334.50;;;12.30;99.90;;;;;;5053050;28;20029;-75
2023/12/28 04:50:34;;;;;;;288.10;269.55;;;12.30;99.90;;;;;;5048034;28;20025;-75
2023/12/28 04:53:00;;;;;;;278.17;260.73;;;12.20;99.90;;;;;;5044245;28;20090;-75
2023/12/28 04:55:26;;;;;;;259.33;242.43;;;12.20;99.90;;;;;;5038062;28;20627;-75
2023/12/28 04:57:52;;;;;;;271.25;253.98;;;12.20;99.90;;;;;;5039413;28;20041;-75
2023/12/28 05:00:18;;;;;;;266.20;248.38;;;12.20;99.90;;;;;;5038550;28;20475;-75
2023/12/28 05:02:44;;;;;;;268.20;245.50;;;12.20;99.90;;;;;;5039758;28;20029;-74
2023/12/28 05:05:12;;;;;;;266.48;249.43;;;12.10;99.90;;;;;;5037930;28;20427;-75
2023/12/28 05:07:38;;;;;;;253.35;236.80;;;12.10;99.90;;;;;;5033339;28;20040;-75
2023/12/28 05:10:05;;;;;;;242.90;227.55;;;12.10;99.90;;;;;;5039231;28;20376;-75
2023/12/28 05:12:31;;;;;;;270.60;253.55;;;12.10;99.90;;;;;;5038486;28;20047;-74
2023/12/28 05:14:58;;;;;;;259.10;243.05;;;12.20;99.90;;;;;;5045698;28;20399;-73
2023/12/28 05:17:24;;;;;;;294.95;275.67;;;12.20;99.90;;;;;;5037364;28;20041;-74
2023/12/28 05:19:50;;;;;;;280.88;263.15;;;12.20;99.90;;;;;;5039563;28;20025;-73
2023/12/28 05:22:16;;;;;;;260.50;244.18;;;12.10;99.90;;;;;;5040001;28;20048;-73
2023/12/28 05:24:42;;;;;;;263.55;246.70;;;12.10;99.90;;;;;;5050590;28;20375;-73
2023/12/28 05:27:08;;;;;;;289.73;269.70;;;12.10;99.90;;;;;;5040976;28;20468;-72
2023/12/28 05:29:34;;;;;;;288.25;269.10;;;12.20;99.90;;;;;;5044492;28;20033;-72
2023/12/28 05:32:00;;;;;;;303.80;283.90;;;12.20;99.90;;;;;;5036963;28;20496;-72
2023/12/28 05:34:26;;;;;;;316.70;295.30;;;12.20;99.90;;;;;;5033561;28;20033;-73
2023/12/28 05:36:53;;;;;;;320.73;297.30;;;12.10;99.90;;;;;;5034949;28;20032;-73
2023/12/28 05:39:19;;;;;;;262.42;244.45;;;12.20;99.90;;;;;;5037112;28;20041;-73
2023/12/28 05:41:47;;;;;;;296.73;277.50;;;12.20;99.90;;;;;;5041745;28;20431;-73
2023/12/28 05:44:14;;;;;;;331.27;310.23;;;12.30;99.90;;;;;;5047229;28;20550;-73
2023/12/28 05:46:40;;;;;;;341.55;319.38;;;12.20;99.90;;;;;;5035922;28;20044;-73
2023/12/28 05:49:06;;;;;;;375.83;350.75;;;12.20;99.90;;;;;;5031991;28;20044;-73
2023/12/28 05:51:42;;;;;;;372.02;347.85;;;12.30;99.90;;;;;;5032110;28;20033;-73
2023/12/28 05:54:08;;;;;;;341.95;318.67;;;12.30;99.90;;;;;;5031411;28;20123;-74
2023/12/28 05:56:34;;;;;;;356.30;331.73;;;12.40;99.90;;;;;;5032779;28;20041;-74
2023/12/28 05:59:00;;;;;;;370.00;345.60;;;12.40;99.90;;;;;;5032440;28;20037;-74
2023/12/28 06:01:27;;;;;;;360.70;336.73;;;12.40;99.90;;;;;;5043985;28;20049;-74
2023/12/28 06:03:53;;;;;;;341.02;318.35;;;12.30;99.90;;;;;;5052874;28;20028;-74
2023/12/28 06:06:20;;;;;;;383.83;358.58;;;12.30;99.90;;;;;;5039823;28;20042;-74
2023/12/28 06:08:46;;;;;;;394.80;367.98;;;12.30;99.90;;;;;;5048420;28;20490;-74
2023/12/28 06:11:12;;;;;;;359.60;335.63;;;12.30;99.90;;;;;;5033196;28;20034;-74
2023/12/28 06:13:38;;;;;;;352.08;329.08;;;12.30;99.90;;;;;;5032894;28;20048;-74
2023/12/28 06:16:05;;;;;;;372.10;346.65;;;12.30;99.90;;;;;;5032133;28;20384;-72
2023/12/28 06:18:31;;;;;;;367.65;343.58;;;12.30;99.90;;;;;;5031529;28;20029;-72
2023/12/28 06:20:57;;;;;;;389.27;363.27;;;12.30;99.90;;;;;;5032458;28;20040;-72
2023/12/28 06:23:23;;;;;;;360.33;337.02;;;12.30;99.90;;;;;;5036522;28;20037;-73
2023/12/28 06:25:49;;;;;;;347.95;325.25;;;12.30;99.90;;;;;;5031209;28;20048;-74
2023/12/28 06:28:15;;;;;;;323.77;303.40;;;12.30;99.90;;;;;;5032343;28;20033;-74
2023/12/28 06:30:41;;;;;;;325.42;305.00;;;12.30;99.90;;;;;;5030567;28;20041;-74
2023/12/28 06:33:07;;;;;;;295.70;277.27;;;12.30;99.90;;;;;;5031582;28;20511;-74
2023/12/28 06:35:33;;;;;;;294.48;276.05;;;12.30;99.90;;;;;;5032254;28;20033;-74
2023/12/28 06:37:59;;;;;;;269.17;252.13;;;12.30;99.90;;;;;;5032440;28;20384;-74
2023/12/28 06:40:26;;;;;;;226.43;213.40;;;12.40;99.90;;;;;;5032042;28;20029;-74
2023/12/28 06:42:52;;;;;;;248.18;233.63;;;12.30;99.90;;;;;;5032146;28;20400;-74
2023/12/28 06:45:18;;;;;;;275.98;259.52;;;12.30;99.90;;;;;;5031585;28;20060;-74
2023/12/28 06:47:44;;;;;;;297.48;279.50;;;12.30;99.90;;;;;;5032329;28;20029;-74
2023/12/28 06:50:10;;;;;;;297.80;280.70;;;12.30;99.90;;;;;;5031968;28;20407;-74
2023/12/28 06:52:36;;;;;;;300.40;282.90;;;12.20;99.90;;;;;;5032534;28;20049;-74
2023/12/28 06:55:02;;;;;;;335.67;315.98;;;12.20;99.90;;;;;;5031034;28;20029;-74
2023/12/28 06:57:29;;;;;;;251.63;237.63;;;12.20;99.90;;;;;;5031662;28;20037;-74
2023/12/28 06:59:55;;;;;;;332.40;312.88;;;12.20;99.90;;;;;;5031182;28;20032;-74
2023/12/28 07:02:22;;;;;;;308.10;290.42;;;12.20;99.90;;;;;;5030491;28;20041;-72
2023/12/28 07:04:48;;;;;;;325.33;306.67;;;12.30;99.90;;;;;;5032261;28;20034;-72
2023/12/28 07:07:14;;;;;;;229.77;217.25;;;12.30;99.90;;;;;;5032048;28;20033;-72
2023/12/28 07:09:40;;;;;;;213.23;201.45;;;12.30;99.90;;;;;;5032221;28;20029;-72
2023/12/28 07:12:06;;;;;;;206.40;195.15;;;12.40;99.90;;;;;;5031717;28;20045;-72
2023/12/28 07:14:32;;;;;;;245.02;231.75;;;12.40;99.90;;;;;;5032175;28;20033;-72
2023/12/28 07:16:58;;;;;;;224.93;212.68;;;12.40;99.90;;;;;;5033655;28;20048;-72
2023/12/28 07:19:24;;;;;;;245.38;232.02;;;12.40;99.90;;;;;;5036462;28;20026;-72
2023/12/28 07:21:51;;;;;;;204.18;193.10;;;12.40;99.90;;;;;;5036128;28;20036;-72
2023/12/28 07:24:17;;;;;;;189.80;179.63;;;12.30;99.90;;;;;;5036208;28;20025;-72
2023/12/28 07:26:43;;;;;;;175.98;166.65;;;12.20;99.90;;;;;;5034218;28;20053;-72
2023/12/28 07:29:09;;;;;;;186.50;176.30;;;12.20;99.90;;;;;;5036342;28;20032;-72
2023/12/28 07:31:35;;;;;;;177.90;168.20;;;12.20;99.90;;;;;;5035584;28;20041;-72
2023/12/28 07:34:01;;;;;;;198.02;187.10;;;12.10;99.90;;;;;;5036126;28;20044;-71
2023/12/28 07:36:27;;;;;;;217.25;205.10;;;12.10;99.90;;;;;;5036226;28;20033;-72
2023/12/28 07:38:53;;;;;;;188.80;178.43;;;12.10;99.90;;;;;;5036075;28;20030;-72
2023/12/28 07:41:19;;;;;;;183.15;173.40;;;12.10;99.90;;;;;;5035541;28;20032;-71
2023/12/28 07:43:45;;;;;;;179.98;170.10;;;12.10;99.90;;;;;;5034625;28;20476;-72
2023/12/28 07:46:11;;;;;;;175.57;165.65;;;12.20;99.90;;;;;;5035153;28;20048;-71
2023/12/28 07:48:37;;;;;;;175.63;166.10;;;12.20;99.90;;;;;;5035920;28;20460;-72
2023/12/28 07:51:05;;;;;;;169.20;160.00;;;12.30;99.90;;;;;;5035632;28;20030;-72
2023/12/28 07:53:31;;;;;;;163.73;155.10;;;12.30;99.90;;;;;;5035230;28;20060;-73
2023/12/28 07:55:57;;;;;;;152.60;144.18;;;12.30;99.90;;;;;;5035535;28;20026;-72
2023/12/28 07:58:23;;;;;;;163.52;154.77;;;12.30;99.90;;;;;;5035510;28;20049;-72
2023/12/28 08:00:50;;;;;;;169.73;160.38;;;12.20;99.90;;;;;;5035955;28;20029;-72
2023/12/28 08:03:16;;;;;;;161.98;153.18;;;12.20;99.90;;;;;;5048875;28;20045;-72
2023/12/28 08:05:42;;;;;;;161.88;152.95;;;12.20;99.90;;;;;;5044431;28;20024;-72
2023/12/28 08:08:08;;;;;;;164.30;154.95;;;12.30;99.90;;;;;;5052013;28;20040;-72
2023/12/28 08:10:34;;;;;;;176.57;166.85;;;12.20;99.90;;;;;;5054696;28;20033;-72
2023/12/28 08:13:01;;;;;;;159.50;150.73;;;12.20;99.90;;;;;;5053550;28;20168;-72
2023/12/28 08:15:27;;;;;;;162.02;153.00;;;12.20;99.90;;;;;;5034845;28;20041;-71
2023/12/28 08:17:53;;;;;;;169.75;160.27;;;12.20;99.90;;;;;;5035289;28;20021;-71
2023/12/28 08:20:19;;;;;;;183.93;174.07;;;12.20;99.90;;;;;;5035114;28;20057;-74
2023/12/28 08:22:45;;;;;;;203.65;192.55;;;12.20;99.90;;;;;;5000456;28;20033;-73
2023/12/28 08:25:11;;;;;;;192.02;181.48;;;12.20;99.90;;;;;;5034881;28;20025;-74
2023/12/28 08:27:37;;;;;;;199.25;188.35;;;12.30;99.90;;;;;;5038948;28;20028;-73
2023/12/28 08:30:05;;;;;;;176.63;167.23;;;12.20;99.90;;;;;;5049769;28;20471;-73
2023/12/28 08:32:31;;;;;;;179.85;170.07;;;12.20;99.90;;;;;;5036027;28;20377;-74
2023/12/28 08:34:57;;;;;;;191.20;180.57;;;12.20;99.90;;;;;;5036549;28;20394;-73
2023/12/28 08:37:23;;;;;;;176.05;166.10;;;12.30;99.90;;;;;;5037901;28;20025;-73
2023/12/28 08:39:49;;;;;;;172.75;163.40;;;12.40;99.90;;;;;;5034300;28;20422;-73
2023/12/28 08:42:15;;;;;;;188.38;177.57;;;12.40;99.90;;;;;;5034477;28;20041;-73
2023/12/28 08:44:41;;;;;;;192.70;182.13;;;12.40;99.90;;;;;;5046526;28;20033;-73
2023/12/28 08:47:07;;;;;;;184.55;174.45;;;12.40;99.90;;;;;;5037147;28;20040;-73
2023/12/28 08:49:33;;;;;;;194.65;183.95;;;12.40;99.90;;;;;;5032301;28;20637;-72
2023/12/28 08:51:59;;;;;;;198.55;187.90;;;12.40;99.90;;;;;;5038368;28;20037;-73
2023/12/28 08:54:25;;;;;;;200.18;189.23;;;12.40;99.90;;;;;;5050725;28;20049;-73
2023/12/28 08:56:52;;;;;;;176.52;166.73;;;12.40;99.90;;;;;;5033777;28;20038;-72
2023/12/28 08:59:18;;;;;;;179.02;169.30;;;12.40;99.90;;;;;;5042472;28;20483;-72
2023/12/28 09:01:44;;;;;;;258.10;243.15;;;12.30;99.90;;;;;;5038936;28;20049;-76
2023/12/28 09:04:11;;;;;;;175.75;165.70;;;12.40;99.90;;;;;;5016604;28;20053;-72
2023/12/28 09:06:37;;;;;;;197.25;186.48;;;12.40;99.90;;;;;;5033207;28;20417;-72
2023/12/28 09:09:03;;;;;;;237.68;223.95;;;12.40;99.90;;;;;;5052431;28;20040;-69
2023/12/28 09:11:29;;;;;;;256.55;241.55;;;12.50;99.90;;;;;;5041513;28;20037;-71
2023/12/28 09:13:56;;;;;;;200.73;189.85;;;12.50;99.90;;;;;;5042975;28;20029;-69
2023/12/28 09:16:22;;;;;;;202.88;191.50;;;12.50;99.90;;;;;;5042696;28;20518;-70
2023/12/28 09:18:48;;;;;;;230.52;217.23;;;12.50;99.90;;;;;;5033613;28;20027;-71
2023/12/28 09:21:14;;;;;;;207.52;196.00;;;12.60;99.90;;;;;;5033346;28;20029;-71
2023/12/28 09:23:41;;;;;;;239.90;226.55;;;12.60;99.90;;;;;;5033776;28;20392;-69
2023/12/28 09:26:07;;;;;;;234.95;221.57;;;12.60;99.90;;;;;;5043930;28;20480;-69
2023/12/28 09:28:33;;;;;;;244.85;230.88;;;12.70;99.90;;;;;;5032544;28;20041;-70
2023/12/28 09:31:00;;;;;;;238.60;224.63;;;12.70;99.90;;;;;;5031533;28;20033;-69
2023/12/28 09:33:26;;;;;;;236.38;222.07;;;12.70;99.90;;;;;;5031768;28;20046;-74
2023/12/28 09:35:53;;;;;;;215.02;203.10;;;12.80;99.90;;;;;;5033084;28;20491;-76
2023/12/28 09:38:19;;;;;;;245.65;231.85;;;12.80;99.90;;;;;;5015004;28;20041;-75
2023/12/28 09:40:45;;;;;;;224.35;210.40;;;12.90;99.90;;;;;;5014259;28;20033;-78
2023/12/28 09:43:36;;;;;;;254.43;239.38;;;12.90;99.90;;;;;;5033340;28;20033;-78
2023/12/28 09:46:07;;;;;;;324.98;304.02;;;12.90;99.90;;;;;;5023215;28;20046;-77
2023/12/28 09:48:33;;;;;;;387.88;363.15;;;12.90;99.90;;;;;;5035806;28;20028;-73
2023/12/28 09:50:59;;;;;;;379.55;355.60;;;13.00;99.90;;;;;;5044211;28;20048;-74
2023/12/28 09:53:26;;;;;;;370.17;345.92;;;13.00;99.90;;;;;;5032548;28;20485;-73
2023/12/28 09:55:52;;;;;;;307.23;273.75;;;12.90;99.90;;;;;;5031625;28;20017;-72
2023/12/28 09:58:19;;;;;;;441.25;404.70;;;13.00;99.90;;;;;;5036261;28;20037;-74
2023/12/28 10:00:46;;;;;;;418.55;390.52;;;13.00;99.90;;;;;;5030537;28;20097;-74
2023/12/28 10:03:21;;;;;;;385.13;360.88;;;12.90;99.90;;;;;;5030769;28;20088;-76
2023/12/28 10:05:47;;;;;;;408.25;381.33;;;12.90;99.90;;;;;;5032635;28;20021;-75
2023/12/28 10:08:14;;;;;;;279.50;262.88;;;12.80;99.90;;;;;;5031636;28;20044;-72
2023/12/28 10:10:50;;;;;;;295.15;277.20;;;12.80;99.90;;;;;;5032682;28;20018;-72
2023/12/28 10:13:17;;;;;;;341.80;319.75;;;12.70;99.90;;;;;;5033805;28;20045;-72
2023/12/28 10:15:43;;;;;;;399.77;373.23;;;12.80;99.90;;;;;;5039722;28;20033;-72
2023/12/28 10:18:09;;;;;;;333.17;311.90;;;12.70;99.90;;;;;;5031089;28;20425;-72
2023/12/28 10:20:36;;;;;;;395.80;369.90;;;12.80;99.90;;;;;;5031061;28;20033;-72
2023/12/28 10:23:02;;;;;;;344.20;320.20;;;12.90;99.90;;;;;;5032635;28;20063;-72
2023/12/28 10:25:29;;;;;;;325.23;304.15;;;13.00;99.90;;;;;;5032332;28;20495;-72
2023/12/28 10:27:55;;;;;;;319.45;299.13;;;13.00;99.90;;;;;;5031428;28;20029;-72
2023/12/28 10:30:22;;;;;;;298.27;281.15;;;13.10;99.90;;;;;;5030129;28;20033;-71
2023/12/28 10:32:48;;;;;;;323.77;303.70;;;13.10;99.90;;;;;;5044629;28;20037;-72
2023/12/28 10:35:14;;;;;;;364.92;342.65;;;13.00;99.90;;;;;;5040441;28;20033;-72
2023/12/28 10:37:43;;;;;;;327.48;307.67;;;13.10;99.90;;;;;;5045025;28;20483;-71
2023/12/28 10:40:17;;;;;;;332.45;306.60;;;13.10;99.90;;;;;;5034165;28;20041;-72
2023/12/28 10:43:00;;;;;;;428.92;403.17;;;13.00;99.90;;;;;;5050798;28;20056;-70
2023/12/28 10:45:28;;;;;;;320.30;300.30;;;13.00;99.90;;;;;;5045401;28;20041;-71
2023/12/28 10:48:05;;;;;;;335.73;316.00;;;12.90;99.90;;;;;;5030305;28;20044;-70
2023/12/28 10:50:44;;;;;;;252.77;238.32;;;12.80;99.90;;;;;;5029898;28;20018;-71
2023/12/28 10:53:22;;;;;;;300.17;282.77;;;12.90;99.90;;;;;;5031130;28;20042;-69
2023/12/28 10:56:12;;;;;;;338.55;318.55;;;13.00;99.90;;;;;;5030092;28;20034;-68
2023/12/28 10:58:49;;;;;;;265.15;249.93;;;13.00;99.90;;;;;;5030973;28;20037;-68
2023/12/28 11:01:22;;;;;;;412.05;385.92;;;13.00;99.90;;;;;;5030634;28;20034;-69
2023/12/28 11:03:52;;;;;;;410.00;384.48;;;13.20;99.90;;;;;;5030413;28;20484;-67
2023/12/28 11:06:18;;;;;;;276.42;261.65;;;13.10;99.90;;;;;;5019820;28;20408;-67
2023/12/28 11:08:48;;;;;;;276.50;261.45;;;13.20;99.90;;;;;;5014503;28;20036;-65
2023/12/28 11:11:14;;;;;;;316.23;298.77;;;13.20;99.90;;;;;;5014469;28;20045;-65
2023/12/28 11:13:41;;;;;;;314.30;296.73;;;13.30;99.90;;;;;;5014028;28;20058;-65
2023/12/28 11:16:07;;;;;;;219.85;207.77;;;13.30;99.90;;;;;;5030959;28;20431;-72
2023/12/28 11:18:33;;;;;;;1584.15;829.38;;;13.30;99.90;;;;;;5030623;28;20044;-68
2023/12/28 11:20:59;;;;;;;329.23;310.70;;;13.30;99.90;;;;;;5031107;28;20021;-68
2023/12/28 11:23:25;;;;;;;1999.90;999.90;;;13.30;99.90;;;;;;5030450;28;20403;-68
2023/12/28 11:25:51;;;;;;;1999.90;999.90;;;13.30;99.90;;;;;;5029735;28;20475;-68
2023/12/28 11:28:17;;;;;;;1999.90;999.90;;;13.20;99.90;;;;;;5030988;28;20045;-68
2023/12/28 11:30:43;;;;;;;1999.90;999.90;;;13.10;99.90;;;;;;5039808;28;20029;-68
2023/12/28 11:33:10;;;;;;;1999.90;999.90;;;13.20;99.90;;;;;;5031014;28;20364;-68
2023/12/28 11:35:39;;;;;;;1999.90;999.90;;;13.10;99.90;;;;;;5031038;28;20033;-68
2023/12/28 11:38:10;;;;;;;1999.90;999.90;;;13.10;99.90;;;;;;5030266;28;20037;-68
2023/12/28 11:40:42;;;;;;;402.88;379.77;;;13.20;99.90;;;;;;5014526;28;20025;-68
2023/12/28 11:43:18;;;;;;;1999.90;999.90;;;13.20;99.90;;;;;;5029777;28;20034;-68
2023/12/28 11:45:52;;;;;;;298.40;281.90;;;13.30;99.90;;;;;;5016357;28;20052;-75
2023/12/28 11:48:27;;;;;;;1999.90;999.90;;;13.30;99.90;;;;;;5027835;28;20042;-74
2023/12/28 11:50:58;;;;;;;334.98;314.90;;;13.20;99.90;;;;;;4998760;28;20487;-75
2023/12/28 11:53:24;;;;;;;322.70;303.33;;;13.30;99.90;;;;;;5013480;28;20034;-74
2023/12/28 11:55:51;;;;;;;324.50;305.20;;;13.30;99.90;;;;;;5029433;28;20268;-75
2023/12/28 11:58:18;;;;;;;303.30;286.45;;;13.30;99.90;;;;;;5034612;28;20041;-74
2023/12/28 12:00:44;;;;;;;261.27;246.98;;;13.30;99.90;;;;;;5044554;28;20446;-77
2023/12/28 12:03:13;;;;;;;219.50;207.93;;;13.20;99.90;;;;;;5032213;28;20038;-75
2023/12/28 12:05:39;;;;;;;238.57;226.02;;;13.10;99.90;;;;;;5033448;28;20036;-76
2023/12/28 12:08:08;;;;;;;275.00;260.67;;;13.00;99.90;;;;;;5033731;28;20540;-76